Burden, Kansas
Current Conditions -  °F | °C
As of 9:19 AM on Friday 19 Dec 2014 (Local Time) from KWLD Reporting Station
Overcast Overcast  
Wind Chill: 33°   Ceiling: 500
Heat Index: 33°   Visibility: 9mi
Dew Point: 32°   Wind: 3mph
Humidity: 96%   Direction: 50°NE
Pressure: 30.27"   Gusts: NA
Location:  37.31°N, 96.75°W
Report Text: KWLD 191519Z AUTO 05003KT 9SM OVC005 01/00 A3027 RMK AO2 CIG 004V009 T00060000
Loading
Personal Weather Stations






























Interactive Weather Map New forecast layout! Learn more

10-Day Weather Forecast

Advertisements
Track Severe Weather on mobile